sensor_id;sensor_type;location;lat;lon;timestamp;pressure;altitude;pressure_sealevel;temperature;humidity
54038;BME280;39954;48.844;9.726;2023-10-08T00:01:02;96924.59;;;14.82;59.25
54038;BME280;39954;48.844;9.726;2023-10-08T00:02:10;96919.06;;;14.87;59.70
54038;BME280;39954;48.844;9.726;2023-10-08T00:03:13;96918.03;;;14.89;59.14
54038;BME280;39954;48.844;9.726;2023-10-08T00:04:19;96916.34;;;14.88;59.71
54038;BME280;39954;48.844;9.726;2023-10-08T00:05:21;96912.22;;;14.84;59.65
54038;BME280;39954;48.844;9.726;2023-10-08T00:06:27;96915.59;;;14.86;59.94
54038;BME280;39954;48.844;9.726;2023-10-08T00:07:30;96909.44;;;14.87;59.68
54038;BME280;39954;48.844;9.726;2023-10-08T00:08:38;96913.38;;;14.80;60.42
54038;BME280;39954;48.844;9.726;2023-10-08T00:09:43;96910.56;;;14.83;60.21
54038;BME280;39954;48.844;9.726;2023-10-08T00:10:48;96912.78;;;14.75;60.91
54038;BME280;39954;48.844;9.726;2023-10-08T00:11:51;96906.06;;;14.71;60.87
54038;BME280;39954;48.844;9.726;2023-10-08T00:12:58;96917.47;;;14.70;60.64
54038;BME280;39954;48.844;9.726;2023-10-08T00:14:00;96913.25;;;14.67;60.83
54038;BME280;39954;48.844;9.726;2023-10-08T00:15:07;96910.94;;;14.63;61.50
54038;BME280;39954;48.844;9.726;2023-10-08T00:16:13;96917.00;;;14.63;61.80
54038;BME280;39954;48.844;9.726;2023-10-08T00:17:20;96914.94;;;14.68;60.65
54038;BME280;39954;48.844;9.726;2023-10-08T00:18:32;96908.00;;;14.67;61.86
54038;BME280;39954;48.844;9.726;2023-10-08T00:19:37;96898.03;;;14.74;61.12
54038;BME280;39954;48.844;9.726;2023-10-08T00:20:41;96893.84;;;14.71;61.28
54038;BME280;39954;48.844;9.726;2023-10-08T00:21:49;96890.94;;;14.76;60.44
54038;BME280;39954;48.844;9.726;2023-10-08T00:22:54;96889.06;;;14.78;61.11
54038;BME280;39954;48.844;9.726;2023-10-08T00:23:57;96896.34;;;14.73;61.52
54038;BME280;39954;48.844;9.726;2023-10-08T00:25:08;96891.22;;;14.71;61.69
54038;BME280;39954;48.844;9.726;2023-10-08T00:26:13;96892.25;;;14.69;61.46
54038;BME280;39954;48.844;9.726;2023-10-08T00:27:21;96887.19;;;14.66;61.96
54038;BME280;39954;48.844;9.726;2023-10-08T00:28:26;96894.41;;;14.62;61.41
54038;BME280;39954;48.844;9.726;2023-10-08T00:29:42;96890.25;;;14.58;61.71
54038;BME280;39954;48.844;9.726;2023-10-08T00:30:47;96888.78;;;14.54;61.42
54038;BME280;39954;48.844;9.726;2023-10-08T00:31:50;96887.22;;;14.50;61.71
54038;BME280;39954;48.844;9.726;2023-10-08T00:32:52;96887.34;;;14.48;61.89
54038;BME280;39954;48.844;9.726;2023-10-08T00:33:57;96886.78;;;14.43;62.52
54038;BME280;39954;48.844;9.726;2023-10-08T00:35:00;96880.78;;;14.41;62.36
54038;BME280;39954;48.844;9.726;2023-10-08T00:36:07;96888.75;;;14.40;62.89
54038;BME280;39954;48.844;9.726;2023-10-08T00:37:19;96889.19;;;14.32;62.94
54038;BME280;39954;48.844;9.726;2023-10-08T00:38:28;96884.78;;;14.32;61.82
54038;BME280;39954;48.844;9.726;2023-10-08T00:39:34;96891.03;;;14.30;62.15
54038;BME280;39954;48.844;9.726;2023-10-08T00:40:42;96882.63;;;14.25;62.70
54038;BME280;39954;48.844;9.726;2023-10-08T00:41:47;96885.16;;;14.26;62.81
54038;BME280;39954;48.844;9.726;2023-10-08T00:42:53;96881.88;;;14.23;62.96
54038;BME280;39954;48.844;9.726;2023-10-08T00:43:59;96885.78;;;14.16;63.30
54038;BME280;39954;48.844;9.726;2023-10-08T00:45:09;96885.72;;;14.17;62.97
54038;BME280;39954;48.844;9.726;2023-10-08T00:46:16;96882.16;;;14.18;63.54
54038;BME280;39954;48.844;9.726;2023-10-08T00:47:24;96878.88;;;14.15;63.02
54038;BME280;39954;48.844;9.726;2023-10-08T00:48:30;96874.75;;;14.10;62.98
54038;BME280;39954;48.844;9.726;2023-10-08T00:49:37;96874.56;;;14.14;63.11
54038;BME280;39954;48.844;9.726;2023-10-08T00:50:56;96872.97;;;14.11;63.42
54038;BME280;39954;48.844;9.726;2023-10-08T00:52:17;96872.91;;;14.13;63.54
54038;BME280;39954;48.844;9.726;2023-10-08T00:53:32;96866.72;;;14.14;63.22
54038;BME280;39954;48.844;9.726;2023-10-08T00:54:42;96860.75;;;14.12;63.19
54038;BME280;39954;48.844;9.726;2023-10-08T00:56:00;96867.44;;;14.01;63.53
54038;BME280;39954;48.844;9.726;2023-10-08T00:57:09;96870.25;;;13.98;63.54
54038;BME280;39954;48.844;9.726;2023-10-08T00:58:15;96859.63;;;14.01;64.25
54038;BME280;39954;48.844;9.726;2023-10-08T00:59:26;96862.59;;;13.95;64.08
54038;BME280;39954;48.844;9.726;2023-10-08T01:00:35;96860.56;;;14.00;63.89
54038;BME280;39954;48.844;9.726;2023-10-08T01:01:43;96859.44;;;14.04;64.12
54038;BME280;39954;48.844;9.726;2023-10-08T01:02:53;96861.06;;;13.91;64.39
54038;BME280;39954;48.844;9.726;2023-10-08T01:04:03;96863.47;;;13.80;65.28
54038;BME280;39954;48.844;9.726;2023-10-08T01:05:15;96863.28;;;13.83;64.93
54038;BME280;39954;48.844;9.726;2023-10-08T01:06:20;96860.84;;;13.80;64.50
54038;BME280;39954;48.844;9.726;2023-10-08T01:07:29;96860.25;;;13.75;65.59
54038;BME280;39954;48.844;9.726;2023-10-08T01:08:32;96853.44;;;13.72;65.38
54038;BME280;39954;48.844;9.726;2023-10-08T01:09:42;96861.38;;;13.71;65.77
54038;BME280;39954;48.844;9.726;2023-10-08T01:10:45;96864.94;;;13.70;65.87
54038;BME280;39954;48.844;9.726;2023-10-08T01:12:13;96857.25;;;13.66;66.83
54038;BME280;39954;48.844;9.726;2023-10-08T01:13:17;96857.59;;;13.60;67.16
54038;BME280;39954;48.844;9.726;2023-10-08T01:14:42;96862.13;;;13.73;66.00
54038;BME280;39954;48.844;9.726;2023-10-08T01:15:45;96858.94;;;13.68;66.00
54038;BME280;39954;48.844;9.726;2023-10-08T01:16:53;96858.34;;;13.62;66.58
54038;BME280;39954;48.844;9.726;2023-10-08T01:17:56;96858.78;;;13.71;66.40
54038;BME280;39954;48.844;9.726;2023-10-08T01:19:05;96852.88;;;13.67;66.49
54038;BME280;39954;48.844;9.726;2023-10-08T01:20:15;96853.44;;;13.72;66.39
54038;BME280;39954;48.844;9.726;2023-10-08T01:21:36;96856.19;;;13.85;65.96
54038;BME280;39954;48.844;9.726;2023-10-08T01:22:44;96852.94;;;13.81;66.84
54038;BME280;39954;48.844;9.726;2023-10-08T01:23:50;96862.19;;;13.87;65.38
54038;BME280;39954;48.844;9.726;2023-10-08T01:24:56;96856.69;;;13.92;65.46
54038;BME280;39954;48.844;9.726;2023-10-08T01:26:04;96857.38;;;13.95;65.48
54038;BME280;39954;48.844;9.726;2023-10-08T01:27:13;96857.53;;;13.92;65.47
54038;BME280;39954;48.844;9.726;2023-10-08T01:28:23;96854.81;;;13.94;64.64
54038;BME280;39954;48.844;9.726;2023-10-08T01:29:28;96855.97;;;14.04;65.09
54038;BME280;39954;48.844;9.726;2023-10-08T01:30:34;96862.03;;;14.04;65.16
54038;BME280;39954;48.844;9.726;2023-10-08T01:31:42;96857.56;;;14.06;64.17
54038;BME280;39954;48.844;9.726;2023-10-08T01:32:48;96857.47;;;14.08;64.08
54038;BME280;39954;48.844;9.726;2023-10-08T01:33:50;96856.63;;;14.07;64.47
54038;BME280;39954;48.844;9.726;2023-10-08T01:34:58;96853.28;;;14.20;63.69
54038;BME280;39954;48.844;9.726;2023-10-08T01:36:05;96858.88;;;14.14;63.80
54038;BME280;39954;48.844;9.726;2023-10-08T01:37:16;96857.56;;;14.06;64.76
54038;BME280;39954;48.844;9.726;2023-10-08T01:38:22;96854.19;;;14.04;64.66
54038;BME280;39954;48.844;9.726;2023-10-08T01:39:29;96863.38;;;14.12;64.21
54038;BME280;39954;48.844;9.726;2023-10-08T01:40:34;96860.00;;;14.09;66.13
54038;BME280;39954;48.844;9.726;2023-10-08T01:41:37;96857.41;;;14.09;64.80
54038;BME280;39954;48.844;9.726;2023-10-08T01:42:42;96862.03;;;14.04;64.64
54038;BME280;39954;48.844;9.726;2023-10-08T01:43:45;96855.97;;;14.04;64.33
54038;BME280;39954;48.844;9.726;2023-10-08T01:44:51;96859.69;;;14.00;65.11
54038;BME280;39954;48.844;9.726;2023-10-08T01:46:05;96859.22;;;13.93;65.36
54038;BME280;39954;48.844;9.726;2023-10-08T01:47:14;96857.53;;;13.92;65.88
54038;BME280;39954;48.844;9.726;2023-10-08T01:48:30;96854.34;;;13.87;65.50
54038;BME280;39954;48.844;9.726;2023-10-08T01:49:39;96854.41;;;13.85;65.48
54038;BME280;39954;48.844;9.726;2023-10-08T01:50:42;96861.44;;;13.85;64.97
54038;BME280;39954;48.844;9.726;2023-10-08T01:51:53;96856.03;;;13.88;64.22
54038;BME280;39954;48.844;9.726;2023-10-08T01:52:56;96856.03;;;13.88;64.22
54038;BME280;39954;48.844;9.726;2023-10-08T01:54:05;96863.84;;;13.88;64.71
54038;BME280;39954;48.844;9.726;2023-10-08T01:55:13;96859.75;;;13.84;65.31
54038;BME280;39954;48.844;9.726;2023-10-08T01:56:36;96859.88;;;13.97;64.56
54038;BME280;39954;48.844;9.726;2023-10-08T01:57:39;96861.38;;;14.01;64.40
54038;BME280;39954;48.844;9.726;2023-10-08T01:58:45;96863.16;;;14.00;64.52
54038;BME280;39954;48.844;9.726;2023-10-08T01:59:48;96869.22;;;14.01;63.59
54038;BME280;39954;48.844;9.726;2023-10-08T02:02:35;96862.13;;;14.03;63.61
54038;BME280;39954;48.844;9.726;2023-10-08T02:03:43;96858.66;;;14.02;63.13
54038;BME280;39954;48.844;9.726;2023-10-08T02:04:46;96853.44;;;14.02;63.64
54038;BME280;39954;48.844;9.726;2023-10-08T02:05:51;96861.88;;;14.07;62.95
54038;BME280;39954;48.844;9.726;2023-10-08T02:06:55;96863.72;;;14.05;63.09
54038;BME280;39954;48.844;9.726;2023-10-08T02:08:02;96862.63;;;14.09;63.35
54038;BME280;39954;48.844;9.726;2023-10-08T02:09:08;96854.03;;;14.07;62.85
54038;BME280;39954;48.844;9.726;2023-10-08T02:10:15;96858.31;;;14.08;63.25
54038;BME280;39954;48.844;9.726;2023-10-08T02:11:18;96858.31;;;14.08;62.86
54038;BME280;39954;48.844;9.726;2023-10-08T02:12:23;96855.88;;;14.05;63.07
54038;BME280;39954;48.844;9.726;2023-10-08T02:13:27;96852.44;;;14.05;62.86
54038;BME280;39954;48.844;9.726;2023-10-08T02:14:32;96856.44;;;14.10;62.59
54038;BME280;39954;48.844;9.726;2023-10-08T02:15:45;96840.97;;;14.07;62.97
54038;BME280;39954;48.844;9.726;2023-10-08T02:16:54;96852.53;;;14.03;63.02
54038;BME280;39954;48.844;9.726;2023-10-08T02:17:58;96848.78;;;14.07;62.70
54038;BME280;39954;48.844;9.726;2023-10-08T02:19:04;96857.47;;;14.08;62.58
54038;BME280;39954;48.844;9.726;2023-10-08T02:20:09;96854.84;;;14.08;63.34
54038;BME280;39954;48.844;9.726;2023-10-08T02:21:18;96862.22;;;14.01;63.47
54038;BME280;39954;48.844;9.726;2023-10-08T02:22:21;96863.19;;;14.15;62.66
54038;BME280;39954;48.844;9.726;2023-10-08T02:23:26;96855.88;;;14.05;62.99
54038;BME280;39954;48.844;9.726;2023-10-08T02:24:32;96854.28;;;14.03;62.93
54038;BME280;39954;48.844;9.726;2023-10-08T02:25:37;96858.84;;;13.99;63.23
54038;BME280;39954;48.844;9.726;2023-10-08T02:26:42;96858.59;;;14.04;63.02
54038;BME280;39954;48.844;9.726;2023-10-08T02:27:45;96859.50;;;14.03;63.33
54038;BME280;39954;48.844;9.726;2023-10-08T02:28:50;96852.44;;;14.05;63.47
54038;BME280;39954;48.844;9.726;2023-10-08T02:29:53;96857.38;;;13.95;63.58
54038;BME280;39954;48.844;9.726;2023-10-08T02:30:58;96856.50;;;13.95;63.79
54038;BME280;39954;48.844;9.726;2023-10-08T02:32:00;96853.34;;;13.90;63.51
54038;BME280;39954;48.844;9.726;2023-10-08T02:33:06;96857.69;;;13.89;63.34
54038;BME280;39954;48.844;9.726;2023-10-08T02:34:16;96850.22;;;13.83;64.07
54038;BME280;39954;48.844;9.726;2023-10-08T02:35:21;96856.44;;;13.80;65.29
54038;BME280;39954;48.844;9.726;2023-10-08T02:36:24;96860.44;;;13.72;64.85
54038;BME280;39954;48.844;9.726;2023-10-08T02:37:30;96855.72;;;13.78;64.42
54038;BME280;39954;48.844;9.726;2023-10-08T02:38:32;96859.25;;;13.77;64.59
54038;BME280;39954;48.844;9.726;2023-10-08T02:39:43;96847.03;;;13.78;64.84
54038;BME280;39954;48.844;9.726;2023-10-08T02:40:48;96850.31;;;13.81;64.59
54038;BME280;39954;48.844;9.726;2023-10-08T02:41:50;96844.69;;;13.73;65.58
54038;BME280;39954;48.844;9.726;2023-10-08T02:42:59;96841.97;;;13.75;65.11
54038;BME280;39954;48.844;9.726;2023-10-08T02:44:02;96847.47;;;13.70;65.54
54038;BME280;39954;48.844;9.726;2023-10-08T02:45:19;96852.72;;;13.70;64.25
54038;BME280;39954;48.844;9.726;2023-10-08T02:46:30;96849.75;;;13.60;64.89
54038;BME280;39954;48.844;9.726;2023-10-08T02:47:34;96846.31;;;13.60;64.68
54038;BME280;39954;48.844;9.726;2023-10-08T02:48:40;96853.06;;;13.64;65.40
54038;BME280;39954;48.844;9.726;2023-10-08T02:49:42;96847.31;;;13.73;64.45
54038;BME280;39954;48.844;9.726;2023-10-08T02:50:50;96850.78;;;13.88;63.80
54038;BME280;39954;48.844;9.726;2023-10-08T02:51:55;96846.94;;;13.79;64.58
54038;BME280;39954;48.844;9.726;2023-10-08T02:53:00;96849.25;;;13.70;65.15
54038;BME280;39954;48.844;9.726;2023-10-08T02:54:06;96851.75;;;13.71;65.31
54038;BME280;39954;48.844;9.726;2023-10-08T02:55:21;96845.72;;;13.71;64.48
54038;BME280;39954;48.844;9.726;2023-10-08T02:56:30;96848.97;;;13.74;64.30
54038;BME280;39954;48.844;9.726;2023-10-08T02:57:35;96849.31;;;13.84;64.32
54038;BME280;39954;48.844;9.726;2023-10-08T02:58:38;96849.31;;;13.84;64.24
54038;BME280;39954;48.844;9.726;2023-10-08T02:59:45;96845.69;;;13.86;64.78
54038;BME280;39954;48.844;9.726;2023-10-08T03:00:49;96838.38;;;13.92;64.78
54038;BME280;39954;48.844;9.726;2023-10-08T03:01:55;96846.22;;;13.92;63.93
54038;BME280;39954;48.844;9.726;2023-10-08T03:02:58;96842.59;;;13.94;63.81
54038;BME280;39954;48.844;9.726;2023-10-08T03:04:05;96841.88;;;13.92;64.76
54038;BME280;39954;48.844;9.726;2023-10-08T03:05:16;96844.19;;;13.97;63.76
54038;BME280;39954;48.844;9.726;2023-10-08T03:06:22;96847.56;;;13.99;64.21
54038;BME280;39954;48.844;9.726;2023-10-08T03:07:26;96846.81;;;13.97;63.89
54038;BME280;39954;48.844;9.726;2023-10-08T03:08:34;96840.91;;;13.93;65.29
54038;BME280;39954;48.844;9.726;2023-10-08T03:09:38;96843.34;;;13.96;63.90
54038;BME280;39954;48.844;9.726;2023-10-08T03:10:48;96850.94;;;14.01;64.59
54038;BME280;39954;48.844;9.726;2023-10-08T03:11:51;96843.00;;;14.02;65.17
54038;BME280;39954;48.844;9.726;2023-10-08T03:12:56;96847.38;;;14.02;64.65
54038;BME280;39954;48.844;9.726;2023-10-08T03:13:58;96847.09;;;13.92;64.92
54038;BME280;39954;48.844;9.726;2023-10-08T03:15:05;96842.78;;;13.91;64.79
54038;BME280;39954;48.844;9.726;2023-10-08T03:16:17;96838.50;;;13.90;65.51
54038;BME280;39954;48.844;9.726;2023-10-08T03:17:29;96844.47;;;13.92;65.09
54038;BME280;39954;48.844;9.726;2023-10-08T03:18:32;96845.38;;;13.91;65.62
54038;BME280;39954;48.844;9.726;2023-10-08T03:19:39;96835.94;;;13.88;65.81
54038;BME280;39954;48.844;9.726;2023-10-08T03:20:47;96848.84;;;13.92;65.94
54038;BME280;39954;48.844;9.726;2023-10-08T03:21:51;96834.66;;;13.81;67.48
54038;BME280;39954;48.844;9.726;2023-10-08T03:22:58;96845.94;;;13.82;66.10
54038;BME280;39954;48.844;9.726;2023-10-08T03:24:01;96839.03;;;13.81;66.74
54038;BME280;39954;48.844;9.726;2023-10-08T03:25:08;96842.34;;;13.99;65.70
54038;BME280;39954;48.844;9.726;2023-10-08T03:26:21;96841.56;;;13.97;66.13
54038;BME280;39954;48.844;9.726;2023-10-08T03:27:36;96836.34;;;13.97;66.26
54038;BME280;39954;48.844;9.726;2023-10-08T03:28:43;96840.34;;;13.88;66.39
54038;BME280;39954;48.844;9.726;2023-10-08T03:29:47;96834.72;;;13.80;67.31
54038;BME280;39954;48.844;9.726;2023-10-08T03:30:53;96835.16;;;13.72;67.64
54038;BME280;39954;48.844;9.726;2023-10-08T03:32:06;96830.22;;;13.68;68.33
54038;BME280;39954;48.844;9.726;2023-10-08T03:33:16;96839.91;;;13.65;68.80
54038;BME280;39954;48.844;9.726;2023-10-08T03:34:25;96838.41;;;13.61;69.60
54038;BME280;39954;48.844;9.726;2023-10-08T03:35:36;96839.25;;;13.62;69.44
54038;BME280;39954;48.844;9.726;2023-10-08T03:36:39;96835.69;;;13.63;69.69
54038;BME280;39954;48.844;9.726;2023-10-08T03:37:46;96851.47;;;13.61;70.15
54038;BME280;39954;48.844;9.726;2023-10-08T03:38:52;96839.25;;;13.62;70.34
54038;BME280;39954;48.844;9.726;2023-10-08T03:39:59;96847.16;;;13.60;70.92
54038;BME280;39954;48.844;9.726;2023-10-08T03:41:02;96844.28;;;13.65;71.50
54038;BME280;39954;48.844;9.726;2023-10-08T03:42:13;96848.50;;;13.68;72.46
54038;BME280;39954;48.844;9.726;2023-10-08T03:43:22;96858.00;;;13.69;72.79
54038;BME280;39954;48.844;9.726;2023-10-08T03:44:36;96861.38;;;13.71;73.13
54038;BME280;39954;48.844;9.726;2023-10-08T03:45:43;96861.38;;;13.71;73.59
54038;BME280;39954;48.844;9.726;2023-10-08T03:46:57;96864.28;;;13.80;74.27
54038;BME280;39954;48.844;9.726;2023-10-08T03:48:00;96868.50;;;13.83;74.73
54038;BME280;39954;48.844;9.726;2023-10-08T03:49:10;96863.56;;;13.78;75.04
54038;BME280;39954;48.844;9.726;2023-10-08T03:50:17;96861.69;;;13.80;75.62
54038;BME280;39954;48.844;9.726;2023-10-08T03:51:34;96866.50;;;13.72;76.49
54038;BME280;39954;48.844;9.726;2023-10-08T03:52:52;96864.34;;;13.64;77.19
54038;BME280;39954;48.844;9.726;2023-10-08T03:53:57;96872.34;;;13.61;78.16
54038;BME280;39954;48.844;9.726;2023-10-08T03:55:00;96868.72;;;13.64;78.71
54038;BME280;39954;48.844;9.726;2023-10-08T03:56:15;96869.91;;;13.58;79.70
54038;BME280;39954;48.844;9.726;2023-10-08T03:57:24;96864.81;;;13.71;79.79
54038;BME280;39954;48.844;9.726;2023-10-08T03:58:43;96869.22;;;13.71;80.13
54038;BME280;39954;48.844;9.726;2023-10-08T03:59:49;96869.22;;;13.71;81.05
54038;BME280;39954;48.844;9.726;2023-10-08T04:01:01;96862.88;;;13.75;81.96
54038;BME280;39954;48.844;9.726;2023-10-08T04:02:21;96861.97;;;13.76;82.91
54038;BME280;39954;48.844;9.726;2023-10-08T04:03:44;96861.97;;;13.76;82.51
54038;BME280;39954;48.844;9.726;2023-10-08T04:05:01;96860.47;;;13.86;83.25
54038;BME280;39954;48.844;9.726;2023-10-08T04:06:20;96853.94;;;13.79;84.56
54038;BME280;39954;48.844;9.726;2023-10-08T04:07:30;96848.13;;;13.74;85.50
54038;BME280;39954;48.844;9.726;2023-10-08T04:09:04;96842.91;;;13.74;85.86
54038;BME280;39954;48.844;9.726;2023-10-08T04:10:21;96849.63;;;13.78;86.86
54038;BME280;39954;48.844;9.726;2023-10-08T04:11:39;96842.25;;;13.70;87.57
54038;BME280;39954;48.844;9.726;2023-10-08T04:13:04;96844.19;;;13.66;87.82
54038;BME280;39954;48.844;9.726;2023-10-08T04:14:11;96844.53;;;13.60;88.77
54038;BME280;39954;48.844;9.726;2023-10-08T04:15:19;96843.94;;;13.55;89.41
54038;BME280;39954;48.844;9.726;2023-10-08T04:16:21;96841.44;;;13.54;89.98
54038;BME280;39954;48.844;9.726;2023-10-08T04:17:42;96832.94;;;13.50;91.02
54038;BME280;39954;48.844;9.726;2023-10-08T04:18:46;96832.78;;;13.53;90.49
54038;BME280;39954;48.844;9.726;2023-10-08T04:19:52;96837.47;;;13.62;90.41
54038;BME280;39954;48.844;9.726;2023-10-08T04:20:55;96830.03;;;13.71;89.68
54038;BME280;39954;48.844;9.726;2023-10-08T04:22:06;96839.91;;;13.65;90.60
54038;BME280;39954;48.844;9.726;2023-10-08T04:23:17;96833.41;;;13.73;90.27
54038;BME280;39954;48.844;9.726;2023-10-08T04:24:23;96828.38;;;13.70;90.29
54038;BME280;39954;48.844;9.726;2023-10-08T04:25:36;96840.38;;;13.72;89.84
54038;BME280;39954;48.844;9.726;2023-10-08T04:26:39;96842.09;;;13.73;91.95
54038;BME280;39954;48.844;9.726;2023-10-08T04:27:43;96839.66;;;13.70;90.40
54038;BME280;39954;48.844;9.726;2023-10-08T04:28:55;96842.50;;;13.65;91.32
54038;BME280;39954;48.844;9.726;2023-10-08T04:30:00;96850.59;;;13.61;92.36
54038;BME280;39954;48.844;9.726;2023-10-08T04:31:05;96846.91;;;13.49;94.21
54038;BME280;39954;48.844;9.726;2023-10-08T04:32:16;96852.59;;;13.41;95.13
54038;BME280;39954;48.844;9.726;2023-10-08T04:33:28;96848.38;;;13.39;93.78
54038;BME280;39954;48.844;9.726;2023-10-08T04:34:36;96851.91;;;13.38;93.70
54038;BME280;39954;48.844;9.726;2023-10-08T04:35:46;96843.31;;;13.36;94.56
54038;BME280;39954;48.844;9.726;2023-10-08T04:36:50;96845.19;;;13.34;94.78
54038;BME280;39954;48.844;9.726;2023-10-08T04:37:56;96856.53;;;13.33;92.48
54038;BME280;39954;48.844;9.726;2023-10-08T04:38:59;96850.84;;;13.25;94.28
54038;BME280;39954;48.844;9.726;2023-10-08T04:40:15;96851.59;;;13.28;92.93
54038;BME280;39954;48.844;9.726;2023-10-08T04:41:18;96844.66;;;13.27;92.37
54038;BME280;39954;48.844;9.726;2023-10-08T04:42:30;96853.63;;;13.21;92.14
54038;BME280;39954;48.844;9.726;2023-10-08T04:43:33;96854.75;;;13.17;93.89
54038;BME280;39954;48.844;9.726;2023-10-08T04:44:42;96852.47;;;13.11;94.12
54038;BME280;39954;48.844;9.726;2023-10-08T04:45:45;96851.03;;;13.06;94.97
54038;BME280;39954;48.844;9.726;2023-10-08T04:46:48;96857.44;;;13.00;96.09
54038;BME280;39954;48.844;9.726;2023-10-08T04:47:54;96852.63;;;12.92;96.21
54038;BME280;39954;48.844;9.726;2023-10-08T04:49:01;96850.84;;;12.93;97.59
54038;BME280;39954;48.844;9.726;2023-10-08T04:50:20;96845.31;;;12.83;99.43
54038;BME280;39954;48.844;9.726;2023-10-08T04:51:23;96849.25;;;12.74;100.00
54038;BME280;39954;48.844;9.726;2023-10-08T04:52:36;96851.44;;;12.66;100.00
54038;BME280;39954;48.844;9.726;2023-10-08T04:53:48;96856.19;;;12.58;99.77
54038;BME280;39954;48.844;9.726;2023-10-08T04:54:53;96853.97;;;12.50;100.00
54038;BME280;39954;48.844;9.726;2023-10-08T04:55:56;96849.94;;;12.45;99.57
54038;BME280;39954;48.844;9.726;2023-10-08T04:57:04;96852.88;;;12.39;100.00
54038;BME280;39954;48.844;9.726;2023-10-08T04:58:08;96860.00;;;12.35;100.00
54038;BME280;39954;48.844;9.726;2023-10-08T04:59:23;96856.09;;;12.26;100.00
54038;BME280;39954;48.844;9.726;2023-10-08T05:00:29;96862.56;;;12.19;100.00
54038;BME280;39954;48.844;9.726;2023-10-08T05:01:46;96865.47;;;12.13;100.00
54038;BME280;39954;48.844;9.726;2023-10-08T05:02:49;96869.44;;;12.03;100.00
54038;BME280;39954;48.844;9.726;2023-10-08T05:03:56;96866.47;;;11.93;100.00
54038;BME280;39954;48.844;9.726;2023-10-08T05:05:27;96861.97;;;11.78;100.00
54038;BME280;39954;48.844;9.726;2023-10-08T05:06:52;96863.50;;;11.64;100.00
54038;BME280;39954;48.844;9.726;2023-10-08T05:08:19;96871.81;;;11.54;100.00
54038;BME280;39954;48.844;9.726;2023-10-08T05:09:30;96874.88;;;11.45;100.00
54038;BME280;39954;48.844;9.726;2023-10-08T05:10:54;96864.97;;;11.34;100.00
54038;BME280;39954;48.844;9.726;2023-10-08T05:12:26;96871.53;;;11.24;100.00
54038;BME280;39954;48.844;9.726;2023-10-08T05:13:36;96870.97;;;11.17;100.00
54038;BME280;39954;48.844;9.726;2023-10-08T05:14:57;96869.28;;;11.16;100.00
54038;BME280;39954;48.844;9.726;2023-10-08T05:16:26;96872.97;;;11.12;100.00
54038;BME280;39954;48.844;9.726;2023-10-08T05:17:47;96873.84;;;11.11;100.00
54038;BME280;39954;48.844;9.726;2023-10-08T05:19:00;96879.75;;;11.14;100.00
54038;BME280;39954;48.844;9.726;2023-10-08T05:20:18;96881.84;;;11.25;100.00
54038;BME280;39954;48.844;9.726;2023-10-08T05:21:32;96887.63;;;11.32;100.00
54038;BME280;39954;48.844;9.726;2023-10-08T05:22:53;96886.56;;;11.36;100.00
54038;BME280;39954;48.844;9.726;2023-10-08T05:23:57;96888.03;;;11.41;100.00
54038;BME280;39954;48.844;9.726;2023-10-08T05:25:15;96885.91;;;11.50;100.00
54038;BME280;39954;48.844;9.726;2023-10-08T05:26:42;96883.63;;;11.61;100.00
54038;BME280;39954;48.844;9.726;2023-10-08T05:27:46;96881.50;;;11.69;100.00
54038;BME280;39954;48.844;9.726;2023-10-08T05:29:11;96883.19;;;11.70;100.00
54038;BME280;39954;48.844;9.726;2023-10-08T05:30:30;96879.81;;;11.68;100.00
54038;BME280;39954;48.844;9.726;2023-10-08T05:31:46;96877.13;;;11.70;100.00
54038;BME280;39954;48.844;9.726;2023-10-08T05:32:55;96879.69;;;11.71;100.00
54038;BME280;39954;48.844;9.726;2023-10-08T05:34:25;96880.41;;;11.73;100.00
54038;BME280;39954;48.844;9.726;2023-10-08T05:35:36;96883.81;;;11.75;100.00
54038;BME280;39954;48.844;9.726;2023-10-08T05:36:56;96885.63;;;11.73;100.00
54038;BME280;39954;48.844;9.726;2023-10-08T05:38:33;96883.03;;;11.73;100.00
54038;BME280;39954;48.844;9.726;2023-10-08T05:39:51;96885.50;;;11.76;100.00
54038;BME280;39954;48.844;9.726;2023-10-08T05:41:12;96882.66;;;11.81;100.00
54038;BME280;39954;48.844;9.726;2023-10-08T05:42:30;96884.97;;;11.87;100.00
54038;BME280;39954;48.844;9.726;2023-10-08T05:43:34;96885.69;;;12.08;100.00
54038;BME280;39954;48.844;9.726;2023-10-08T05:45:07;96885.53;;;12.11;100.00
54038;BME280;39954;48.844;9.726;2023-10-08T05:46:34;96882.00;;;12.12;100.00
54038;BME280;39954;48.844;9.726;2023-10-08T05:47:54;96881.09;;;12.13;100.00
54038;BME280;39954;48.844;9.726;2023-10-08T05:49:10;96891.59;;;12.12;100.00
54038;BME280;39954;48.844;9.726;2023-10-08T05:50:33;96892.44;;;12.12;100.00
54038;BME280;39954;48.844;9.726;2023-10-08T05:51:45;96893.19;;;12.14;100.00
54038;BME280;39954;48.844;9.726;2023-10-08T05:52:59;96892.22;;;12.17;100.00
54038;BME280;39954;48.844;9.726;2023-10-08T05:54:04;96892.28;;;12.15;100.00
54038;BME280;39954;48.844;9.726;2023-10-08T05:55:28;96895.03;;;12.12;100.00
54038;BME280;39954;48.844;9.726;2023-10-08T05:56:36;96891.59;;;12.12;100.00
54038;BME280;39954;48.844;9.726;2023-10-08T05:58:06;96889.06;;;12.10;100.00
54038;BME280;39954;48.844;9.726;2023-10-08T05:59:41;96888.97;;;12.12;100.00
54038;BME280;39954;48.844;9.726;2023-10-08T06:00:55;96889.81;;;12.12;100.00
54038;BME280;39954;48.844;9.726;2023-10-08T06:02:29;96891.53;;;12.13;100.00
54038;BME280;39954;48.844;9.726;2023-10-08T06:03:53;96888.22;;;12.27;100.00
54038;BME280;39954;48.844;9.726;2023-10-08T06:05:23;96882.38;;;12.39;100.00
54038;BME280;39954;48.844;9.726;2023-10-08T06:06:28;96885.59;;;12.44;100.00
54038;BME280;39954;48.844;9.726;2023-10-08T06:07:40;96882.81;;;12.47;100.00
54038;BME280;39954;48.844;9.726;2023-10-08T06:09:07;96884.03;;;12.58;100.00
54038;BME280;39954;48.844;9.726;2023-10-08T06:10:26;96891.53;;;12.64;100.00